Hauptseite
METAR-TAF:

METAR-TAF

Flughäfen :

Wick Airport

Wick, Schottland

Breite: 58-27N, Länge: 003-05W, Höhe: 39 m

Beobachtung

Neuester Wetterbericht von vor 34 Minuten, um 01:50 UTC
Wind 13 kt aus Süd/Südost
Temperatur 9°C
Luftfeuchtigkeit 87%
Luftdruck 1033 hPa
Sichtweite 10 km oder mehr
Leichtregen

METAR: EGPC 180150Z AUTO 16013KT 9999 -RA NCD 09/07 Q1033

Zeit: 02:24 (02:24 UTC)

Prognose

Neuester Wetterbericht von vor 3 Stunden und 36 Minuten, um 22:48 UTC
Gültige Prognose vom 18 um 00 UTC bis 18 um 09 UTC
Wind 14 kt aus Süd/Südost
Sichtweite 10 km oder mehr
Aufgelockert bewölkt in der Höhe von 1200 ft
Zeitweise
vom 18 um 00 UTC bis 18 um 08 UTC
Wind 18 kt aus Süd/Südost, Böen bis zu 28 kt
Sichtweite: 8000 m
Durchbrochene Bewölkung in der Höhe von 1200 ft

TAF: EGPC 172248Z 1800/1809 15014KT 9999 SCT012 TEMPO 1800/1808 16018G28KT 8000 BKN012

Wetterbeobachtungen und Prognosen von mehr als 4000 Flughäfen (METAR und TAF Bericht).

Die verfügbaren Stationen werden durch gelbe und rote Markierungen auf der Karte dargestellt.

Führen Sie die Maus auf sie, um den Namen der Station zu sehen.

Darauf klicken, um die Beobachtung von Wetterbeobachtungen und Prognosen zu sehen.

Um die Karte zu ändern : klicken Sie auf den grünen Tasten mit einem schwarzen Kreuz Zum Vergrößern, auf den grünen Button mit einem Gedankenstrich zu verkleinern, oder auf die grünen Pfeile für benachbarte Karten.


METAR-TAF: